createdAt,value
2017-12-08T00:01:28.017Z,22.70
2017-12-08T00:03:54.570Z,23.60
2017-12-08T00:06:20.884Z,21.90
2017-12-08T00:08:46.785Z,21.60
2017-12-08T00:11:14.143Z,22.53
2017-12-08T00:13:40.115Z,21.40
2017-12-08T00:16:06.789Z,20.10
2017-12-08T00:18:32.734Z,21.23
2017-12-08T00:20:58.655Z,21.70
2017-12-08T00:23:24.624Z,20.83
2017-12-08T00:25:51.302Z,18.70
2017-12-08T00:28:17.264Z,18.83
2017-12-08T00:30:43.196Z,19.87
2017-12-08T00:33:09.102Z,16.60
2017-12-08T00:35:35.068Z,16.30
2017-12-08T00:38:01.010Z,17.40
2017-12-08T00:40:26.996Z,15.40
2017-12-08T00:42:52.943Z,13.53
2017-12-08T00:45:18.878Z,12.70
2017-12-08T00:47:45.582Z,13.60
2017-12-08T00:50:11.504Z,10.50
2017-12-08T00:52:37.470Z,10.57
2017-12-08T00:55:03.423Z,8.33
2017-12-08T00:57:30.117Z,7.90
2017-12-08T00:59:56.079Z,8.13
2017-12-08T01:02:22.282Z,6.70
2017-12-08T01:04:48.227Z,5.67
2017-12-08T01:07:14.190Z,4.93
2017-12-08T01:09:40.884Z,4.93
2017-12-08T01:12:06.806Z,4.60
2017-12-08T01:14:32.772Z,4.53
2017-12-08T01:16:58.702Z,4.60
2017-12-08T01:19:24.662Z,4.00
2017-12-08T01:21:50.590Z,3.90
2017-12-08T01:24:16.523Z,4.30
2017-12-08T01:29:18.790Z,3.83
2017-12-08T01:31:44.735Z,3.50
2017-12-08T01:34:10.705Z,3.30
2017-12-08T01:36:36.906Z,3.17
2017-12-08T01:39:02.859Z,3.67
2017-12-08T01:41:28.807Z,3.10
2017-12-08T01:43:56.487Z,3.20
2017-12-08T01:46:22.468Z,3.20
2017-12-08T01:48:48.428Z,3.47
2017-12-08T01:51:14.431Z,3.83
2017-12-08T01:53:41.116Z,3.40
2017-12-08T01:56:08.144Z,3.90
2017-12-08T01:58:35.096Z,4.60
2017-12-08T02:01:01.049Z,4.00
2017-12-08T02:03:26.971Z,4.00
2017-12-08T02:05:52.923Z,4.03
2017-12-08T02:08:19.624Z,4.43
2017-12-08T02:10:45.517Z,3.40
2017-12-08T02:13:11.453Z,3.50
2017-12-08T02:15:37.419Z,5.23
2017-12-08T02:18:03.452Z,4.80
2017-12-08T02:20:30.112Z,3.57
2017-12-08T02:22:57.343Z,3.67
2017-12-08T02:25:23.253Z,3.83
2017-12-08T02:27:49.203Z,3.93
2017-12-08T02:30:15.134Z,4.10
2017-12-08T02:32:41.795Z,4.30
2017-12-08T02:35:07.727Z,6.90
2017-12-08T02:37:33.797Z,4.63
2017-12-08T02:40:01.721Z,4.40
2017-12-08T02:42:28.285Z,4.67
2017-12-08T02:44:54.984Z,5.20
2017-12-08T02:47:20.915Z,4.03
2017-12-08T02:49:46.863Z,4.03
2017-12-08T02:52:12.839Z,5.20
2017-12-08T02:54:38.786Z,4.23
2017-12-08T02:57:04.698Z,4.50
2017-12-08T02:59:30.988Z,4.63
2017-12-08T03:01:56.912Z,4.13
2017-12-08T03:04:22.852Z,4.57
2017-12-08T03:06:49.703Z,5.40
2017-12-08T03:09:15.643Z,4.00
2017-12-08T03:11:42.436Z,4.30
2017-12-08T03:14:08.428Z,4.60
2017-12-08T03:16:34.384Z,4.43
2017-12-08T03:19:00.390Z,5.47
2017-12-08T03:21:26.336Z,5.37
2017-12-08T03:23:52.246Z,4.80
2017-12-08T03:26:18.201Z,4.60
2017-12-08T03:28:44.149Z,5.30
2017-12-08T03:31:10.716Z,5.30
2017-12-08T03:33:36.708Z,5.80
2017-12-08T03:36:03.536Z,5.17
2017-12-08T03:38:29.470Z,5.53
2017-12-08T03:40:55.437Z,5.20
2017-12-08T03:43:21.375Z,5.33
2017-12-08T03:45:47.625Z,5.50
2017-12-08T03:48:13.576Z,6.37
2017-12-08T03:50:39.504Z,5.80
2017-12-08T03:53:05.489Z,6.23
2017-12-08T03:55:31.509Z,5.30
2017-12-08T03:57:57.468Z,6.33
2017-12-08T04:00:23.427Z,6.30
2017-12-08T04:02:51.014Z,6.17
2017-12-08T04:05:16.947Z,5.90
2017-12-08T04:07:42.887Z,5.10
2017-12-08T04:10:08.888Z,5.03
2017-12-08T04:12:34.847Z,4.33
2017-12-08T04:15:00.779Z,5.10
2017-12-08T04:17:27.451Z,5.90
2017-12-08T04:19:53.409Z,6.00
2017-12-08T04:22:19.394Z,5.73
2017-12-08T04:24:45.679Z,4.93
2017-12-08T04:27:11.605Z,4.53
2017-12-08T04:29:38.202Z,6.37
2017-12-08T04:32:04.940Z,4.97
2017-12-08T04:34:31.594Z,6.10
2017-12-08T04:36:58.157Z,5.23
2017-12-08T04:39:24.080Z,6.20
2017-12-08T04:41:50.048Z,5.97
2017-12-08T04:44:16.162Z,6.07
2017-12-08T04:46:43.683Z,5.30
2017-12-08T04:49:09.604Z,5.80
2017-12-08T04:51:35.542Z,5.23
2017-12-08T04:54:01.602Z,4.37
2017-12-08T04:56:31.685Z,4.90
2017-12-08T04:58:57.660Z,5.70
2017-12-08T05:01:24.175Z,5.00
2017-12-08T05:03:50.861Z,6.33
2017-12-08T05:06:16.800Z,5.47
2017-12-08T05:08:42.730Z,5.33
2017-12-08T05:11:08.692Z,5.20
2017-12-08T05:13:34.631Z,6.73
2017-12-08T05:16:00.568Z,5.20
2017-12-08T05:18:26.504Z,5.53
2017-12-08T05:20:52.965Z,5.30
2017-12-08T05:23:19.647Z,5.67
2017-12-08T05:25:45.587Z,6.67
2017-12-08T05:28:11.567Z,6.07
2017-12-08T05:30:37.495Z,5.40
2017-12-08T05:33:04.665Z,5.90
2017-12-08T05:35:30.589Z,7.07
2017-12-08T05:37:56.521Z,5.37
2017-12-08T05:40:22.436Z,5.63
2017-12-08T05:42:48.373Z,5.70
2017-12-08T05:45:14.479Z,5.73
2017-12-08T05:47:40.434Z,5.40
2017-12-08T05:50:06.400Z,5.00
2017-12-08T05:52:32.319Z,4.53
2017-12-08T05:54:59.217Z,4.60
2017-12-08T05:57:25.786Z,5.40
2017-12-08T05:59:51.773Z,5.13
2017-12-08T06:02:17.776Z,5.20
2017-12-08T06:04:43.698Z,5.40
2017-12-08T06:07:09.716Z,5.53
2017-12-08T06:09:35.625Z,6.83
2017-12-08T06:12:02.172Z,5.70
2017-12-08T06:14:28.987Z,5.93
2017-12-08T06:16:54.982Z,5.53
2017-12-08T06:19:21.717Z,5.87
2017-12-08T06:21:47.566Z,6.33
2017-12-08T06:24:13.516Z,5.90
2017-12-08T06:26:39.436Z,6.67
2017-12-08T06:29:05.486Z,6.37
2017-12-08T06:31:31.409Z,6.33
2017-12-08T06:33:58.121Z,6.97
2017-12-08T06:36:24.040Z,7.23
2017-12-08T06:38:50.814Z,7.20
2017-12-08T06:41:16.729Z,6.87
2017-12-08T06:43:42.660Z,6.80
2017-12-08T06:46:10.208Z,7.30
2017-12-08T06:48:36.210Z,6.73
2017-12-08T06:51:02.947Z,6.37
2017-12-08T06:53:28.895Z,6.57
2017-12-08T06:55:54.812Z,8.47
2017-12-08T06:58:20.760Z,6.77
2017-12-08T07:00:46.728Z,6.80
2017-12-08T07:03:12.664Z,7.17
2017-12-08T07:05:38.591Z,7.63
2017-12-08T07:08:07.622Z,7.27
2017-12-08T07:10:34.513Z,6.60
2017-12-08T07:13:00.459Z,7.67
2017-12-08T07:15:26.404Z,5.57
2017-12-08T07:17:52.395Z,8.00
2017-12-08T07:20:18.438Z,6.80
2017-12-08T07:22:44.379Z,6.20
2017-12-08T07:25:11.109Z,7.10
2017-12-08T07:27:37.878Z,5.60
2017-12-08T07:30:03.939Z,6.70
2017-12-08T07:32:31.559Z,6.60
2017-12-08T07:34:58.203Z,7.33
2017-12-08T07:37:24.181Z,7.30
2017-12-08T07:39:50.127Z,6.80
2017-12-08T07:42:17.626Z,6.57
2017-12-08T07:44:43.574Z,7.67
2017-12-08T07:47:09.566Z,6.73
2017-12-08T07:49:35.551Z,5.80
2017-12-08T07:52:02.382Z,7.00
2017-12-08T07:54:28.458Z,6.90
2017-12-08T07:56:54.548Z,6.70
2017-12-08T07:59:21.008Z,6.63
2017-12-08T08:01:47.007Z,6.20
2017-12-08T08:04:13.223Z,6.23
2017-12-08T08:06:39.220Z,6.97
2017-12-08T08:09:05.722Z,6.20
2017-12-08T08:11:31.666Z,7.47
2017-12-08T08:13:57.934Z,6.47
2017-12-08T08:16:24.980Z,6.73
2017-12-08T08:18:50.900Z,6.27
2017-12-08T08:21:17.907Z,6.63
2017-12-08T08:23:43.810Z,6.70
2017-12-08T08:26:09.748Z,7.03
2017-12-08T08:28:35.747Z,6.00
2017-12-08T08:31:01.771Z,7.20
2017-12-08T08:33:27.757Z,6.60
2017-12-08T08:35:55.370Z,6.80
2017-12-08T08:38:21.244Z,6.90
2017-12-08T08:40:47.252Z,6.40
2017-12-08T08:43:13.244Z,6.67
2017-12-08T08:45:39.185Z,6.83
2017-12-08T08:48:05.935Z,6.63
2017-12-08T08:50:31.893Z,6.30
2017-12-08T08:52:57.865Z,6.73
2017-12-08T08:55:23.799Z,6.30
2017-12-08T08:57:49.767Z,6.83
2017-12-08T09:00:15.732Z,7.10
2017-12-08T09:02:41.686Z,6.70
2017-12-08T09:05:08.656Z,7.27
2017-12-08T09:07:35.316Z,7.17
2017-12-08T09:10:02.849Z,6.40
2017-12-08T09:12:28.770Z,7.23
2017-12-08T09:14:54.688Z,6.23
2017-12-08T09:17:20.738Z,5.50
2017-12-08T09:19:48.311Z,5.70
2017-12-08T09:22:14.248Z,6.07
2017-12-08T09:24:40.162Z,5.47
2017-12-08T09:27:06.173Z,6.50
2017-12-08T09:29:32.105Z,4.43
2017-12-08T09:31:59.026Z,5.07
2017-12-08T09:34:24.955Z,6.00
2017-12-08T09:36:51.038Z,6.20
2017-12-08T09:39:17.207Z,5.57
2017-12-08T09:41:43.174Z,5.50
2017-12-08T09:44:09.090Z,6.17
2017-12-08T09:46:35.125Z,5.37
2017-12-08T09:49:01.035Z,4.67
2017-12-08T09:51:26.923Z,5.50
2017-12-08T09:53:52.841Z,4.87
2017-12-08T09:56:19.503Z,5.10
2017-12-08T09:58:45.405Z,5.90
2017-12-08T10:01:11.316Z,4.80
2017-12-08T10:03:37.255Z,5.07
2017-12-08T10:06:03.211Z,4.83
2017-12-08T10:08:29.851Z,4.50
2017-12-08T10:10:55.806Z,5.30
2017-12-08T10:13:21.723Z,4.50
2017-12-08T10:15:47.715Z,4.10
2017-12-08T10:18:13.663Z,4.10
2017-12-08T10:20:39.623Z,4.80
2017-12-08T10:23:05.580Z,5.03
2017-12-08T10:25:32.309Z,4.17
2017-12-08T10:27:58.419Z,3.80
2017-12-08T10:30:24.363Z,4.73
2017-12-08T10:32:51.092Z,4.30
2017-12-08T10:35:17.828Z,4.33
2017-12-08T10:37:43.826Z,4.30
2017-12-08T10:40:10.471Z,3.47
2017-12-08T10:42:36.403Z,3.77
2017-12-08T10:45:03.021Z,4.20
2017-12-08T10:47:29.049Z,4.13
2017-12-08T10:49:55.099Z,3.70
2017-12-08T10:52:21.897Z,4.10
2017-12-08T10:54:47.899Z,3.70
2017-12-08T10:57:14.550Z,3.80
2017-12-08T10:59:40.507Z,4.50
2017-12-08T11:02:06.489Z,4.50
2017-12-08T11:04:32.499Z,3.83
2017-12-08T11:06:59.209Z,4.07
2017-12-08T11:09:25.922Z,3.63
2017-12-08T11:11:51.826Z,4.40
2017-12-08T11:14:18.518Z,4.57
2017-12-08T11:16:44.470Z,4.43
2017-12-08T11:19:10.532Z,4.50
2017-12-08T11:21:37.362Z,4.23
2017-12-08T11:24:03.616Z,3.93
2017-12-08T11:26:30.259Z,4.80
2017-12-08T11:28:57.017Z,4.90
2017-12-08T11:31:23.914Z,5.10
2017-12-08T11:33:50.625Z,4.40
2017-12-08T11:36:17.296Z,3.63
2017-12-08T11:38:43.228Z,4.43
2017-12-08T11:41:09.156Z,3.77
2017-12-08T11:43:35.305Z,4.27
2017-12-08T11:46:01.215Z,4.33
2017-12-08T11:48:27.140Z,4.00
2017-12-08T11:50:53.080Z,4.20
2017-12-08T11:53:19.058Z,3.60
2017-12-08T11:55:45.024Z,3.60
2017-12-08T11:58:10.959Z,3.80
2017-12-08T12:00:37.084Z,3.50
2017-12-08T12:03:03.031Z,2.80
2017-12-08T12:05:28.948Z,2.67
2017-12-08T12:07:54.880Z,2.40
2017-12-08T12:10:21.444Z,2.70
2017-12-08T12:12:47.350Z,2.23
2017-12-08T12:15:13.624Z,2.70
2017-12-08T12:17:39.542Z,2.20
2017-12-08T12:20:05.479Z,2.80
2017-12-08T12:22:31.414Z,3.60
2017-12-08T12:24:57.362Z,3.00
2017-12-08T12:27:23.274Z,4.13
2017-12-08T12:29:49.202Z,2.90
2017-12-08T12:32:15.543Z,3.67
2017-12-08T12:34:41.487Z,3.77
2017-12-08T12:37:07.375Z,2.50
2017-12-08T12:39:33.380Z,3.33
2017-12-08T12:41:59.889Z,3.00
2017-12-08T12:44:26.335Z,3.27
2017-12-08T12:46:52.302Z,2.77
2017-12-08T12:49:19.034Z,3.00
2017-12-08T12:51:44.966Z,2.73
2017-12-08T12:54:10.908Z,3.23
2017-12-08T12:56:36.833Z,3.13
2017-12-08T12:59:02.784Z,2.90
2017-12-08T13:01:28.781Z,2.90
2017-12-08T13:03:54.747Z,2.13
2017-12-08T13:06:20.692Z,2.90
2017-12-08T13:08:46.665Z,2.60
2017-12-08T13:11:13.289Z,2.50
2017-12-08T13:13:39.222Z,2.30
2017-12-08T13:16:06.172Z,2.47
2017-12-08T13:18:33.175Z,2.40
2017-12-08T13:20:59.138Z,3.50
2017-12-08T13:23:25.200Z,2.13
2017-12-08T13:25:51.114Z,2.73
2017-12-08T13:28:18.126Z,2.13
2017-12-08T13:30:44.488Z,2.40
2017-12-08T13:33:12.144Z,2.73
2017-12-08T13:35:39.055Z,2.80
2017-12-08T13:38:06.077Z,3.23
2017-12-08T13:40:32.016Z,3.50
2017-12-08T13:42:59.416Z,2.63
2017-12-08T13:45:25.350Z,2.90
2017-12-08T13:47:51.291Z,2.30
2017-12-08T13:50:21.059Z,2.80
2017-12-08T13:52:47.019Z,2.60
2017-12-08T13:55:25.322Z,2.13
2017-12-08T13:57:51.959Z,2.83
2017-12-08T14:00:18.753Z,2.67
2017-12-08T14:02:44.724Z,2.40
2017-12-08T14:05:10.930Z,2.47
2017-12-08T14:07:37.521Z,2.23
2017-12-08T14:10:03.475Z,3.00
2017-12-08T14:12:29.940Z,2.40
2017-12-08T14:14:55.936Z,2.70
2017-12-08T14:17:22.634Z,2.53
2017-12-08T14:19:48.620Z,2.13
2017-12-08T14:22:14.527Z,2.17
2017-12-08T14:24:40.498Z,2.53
2017-12-08T14:27:06.524Z,2.30
2017-12-08T14:29:32.451Z,2.43
2017-12-08T14:31:58.888Z,2.90
2017-12-08T14:34:24.836Z,2.43
2017-12-08T14:36:51.580Z,2.33
2017-12-08T14:39:17.509Z,2.23
2017-12-08T14:41:43.445Z,2.07
2017-12-08T14:44:10.384Z,2.43
2017-12-08T14:46:36.303Z,2.03
2017-12-08T14:49:02.227Z,2.47
2017-12-08T14:51:28.163Z,2.73
2017-12-08T14:53:54.101Z,2.20
2017-12-08T14:56:20.039Z,2.23
2017-12-08T14:58:45.974Z,2.50
2017-12-08T15:01:11.954Z,2.60
2017-12-08T15:03:37.879Z,2.13
2017-12-08T15:06:03.852Z,2.30
2017-12-08T15:08:29.908Z,2.33
2017-12-08T15:10:55.825Z,2.20
2017-12-08T15:13:21.753Z,3.07
2017-12-08T15:15:47.786Z,2.33
2017-12-08T15:18:13.635Z,2.33
2017-12-08T15:20:40.611Z,2.30
2017-12-08T15:23:06.547Z,2.10
2017-12-08T15:25:32.455Z,2.17
2017-12-08T15:27:58.378Z,2.27
2017-12-08T15:30:25.138Z,2.50
2017-12-08T15:32:51.140Z,2.63
2017-12-08T15:35:18.080Z,2.50
2017-12-08T15:37:44.038Z,2.43
2017-12-08T15:40:10.458Z,3.30
2017-12-08T15:42:36.366Z,2.33
2017-12-08T15:45:02.293Z,2.90
2017-12-08T15:47:28.617Z,2.50
2017-12-08T15:49:55.277Z,2.47
2017-12-08T15:52:22.209Z,3.33
2017-12-08T15:54:48.125Z,2.50
2017-12-08T15:57:14.054Z,2.30
2017-12-08T16:02:29.333Z,2.63
2017-12-08T16:04:55.313Z,3.20
2017-12-08T16:07:21.369Z,3.90
2017-12-08T16:09:48.004Z,2.40
2017-12-08T16:12:13.960Z,3.13
2017-12-08T16:14:40.824Z,2.80
2017-12-08T16:17:06.770Z,2.20
2017-12-08T16:19:32.747Z,3.00
2017-12-08T16:21:58.728Z,2.93
2017-12-08T16:24:25.457Z,2.80
2017-12-08T16:26:51.412Z,2.80
2017-12-08T16:29:17.361Z,2.47
2017-12-08T16:31:43.280Z,2.87
2017-12-08T16:34:10.903Z,2.77
2017-12-08T16:36:36.867Z,2.60
2017-12-08T16:39:03.739Z,2.10
2017-12-08T16:41:31.057Z,1.70
2017-12-08T16:43:59.316Z,2.10
2017-12-08T16:46:25.788Z,2.20
2017-12-08T16:48:51.712Z,2.37
2017-12-08T16:51:18.716Z,2.37
2017-12-08T16:53:46.451Z,2.67
2017-12-08T16:56:13.393Z,3.83
2017-12-08T16:58:39.414Z,4.45
2017-12-08T17:01:05.354Z,3.17
2017-12-08T17:03:31.262Z,2.90
2017-12-08T17:05:57.326Z,3.17
2017-12-08T17:08:23.653Z,3.00
2017-12-08T17:10:51.443Z,3.70
2017-12-08T17:13:18.162Z,3.80
2017-12-08T17:15:44.112Z,4.10
2017-12-08T17:18:10.252Z,4.07
2017-12-08T17:20:37.542Z,2.87
2017-12-08T17:23:05.235Z,3.90
2017-12-08T17:25:33.306Z,3.90
2017-12-08T17:28:00.955Z,4.25
2017-12-08T17:30:26.895Z,3.83
2017-12-08T17:32:55.405Z,3.63
2017-12-08T17:35:22.477Z,4.23
2017-12-08T17:37:49.955Z,4.10
2017-12-08T17:40:16.698Z,5.30
2017-12-08T17:42:44.151Z,4.00
2017-12-08T17:45:10.840Z,4.20
2017-12-08T17:47:37.512Z,4.00
2017-12-08T17:50:03.495Z,4.10
2017-12-08T17:52:29.406Z,4.47
2017-12-08T17:54:55.313Z,4.07
2017-12-08T17:57:22.004Z,4.57
2017-12-08T17:59:47.971Z,4.13
2017-12-08T18:02:13.873Z,6.13
2017-12-08T18:04:39.967Z,5.43
2017-12-08T18:07:05.864Z,4.50
2017-12-08T18:09:31.782Z,4.37
2017-12-08T18:11:57.718Z,5.03
2017-12-08T18:14:23.766Z,4.87
2017-12-08T18:16:49.663Z,4.50
2017-12-08T18:19:15.600Z,4.80
2017-12-08T18:21:41.531Z,5.93
2017-12-08T18:24:07.424Z,6.07
2017-12-08T18:26:33.315Z,5.23
2017-12-08T18:28:59.273Z,5.40
2017-12-08T18:31:25.490Z,4.57
2017-12-08T18:33:51.447Z,4.28
2017-12-08T18:36:17.582Z,5.00
2017-12-08T18:38:43.483Z,5.07
2017-12-08T18:41:09.410Z,4.70
2017-12-08T18:43:35.383Z,4.53
2017-12-08T18:46:01.477Z,4.70
2017-12-08T18:48:27.443Z,4.87
2017-12-08T18:50:54.115Z,4.47
2017-12-08T18:53:20.071Z,4.53
2017-12-08T18:55:46.772Z,5.07
2017-12-08T18:58:12.705Z,4.60
2017-12-08T19:00:38.630Z,4.50
2017-12-08T19:03:04.542Z,4.67
2017-12-08T19:05:30.454Z,4.90
2017-12-08T19:07:56.402Z,4.80
2017-12-08T19:10:22.331Z,4.60
2017-12-08T19:12:48.296Z,5.73
2017-12-08T19:15:14.256Z,4.90
2017-12-08T19:17:40.935Z,4.90
2017-12-08T19:20:06.876Z,4.63
2017-12-08T19:22:32.781Z,5.07
2017-12-08T19:24:58.925Z,4.97
2017-12-08T19:27:25.292Z,5.63
2017-12-08T19:29:51.966Z,5.97
2017-12-08T19:32:18.669Z,5.50
2017-12-08T19:34:44.596Z,4.70
2017-12-08T19:37:11.611Z,7.10
2017-12-08T19:39:37.591Z,6.62
2017-12-08T19:42:03.864Z,5.77
2017-12-08T19:44:29.784Z,5.57
2017-12-08T19:46:55.713Z,5.60
2017-12-08T19:49:21.690Z,5.30
2017-12-08T19:51:47.613Z,5.17
2017-12-08T19:54:13.558Z,5.17
2017-12-08T19:56:39.715Z,5.60
2017-12-08T19:59:05.631Z,5.60
2017-12-08T20:01:31.547Z,5.27
2017-12-08T20:03:57.475Z,5.17
2017-12-08T20:06:24.175Z,7.23
2017-12-08T20:08:50.233Z,5.30
2017-12-08T20:11:17.178Z,5.75
2017-12-08T20:13:45.137Z,5.18
2017-12-08T20:16:11.931Z,5.85
2017-12-08T20:18:39.277Z,4.57
2017-12-08T20:21:07.932Z,5.22
2017-12-08T20:23:34.042Z,5.70
2017-12-08T20:26:00.338Z,5.00
2017-12-08T20:28:26.899Z,5.45
2017-12-08T20:30:52.845Z,4.10
2017-12-08T20:33:20.488Z,4.17
2017-12-08T20:35:47.448Z,3.90
2017-12-08T20:38:13.380Z,3.78
2017-12-08T20:40:39.347Z,3.50
2017-12-08T20:43:06.086Z,3.33
2017-12-08T20:45:32.004Z,3.72
2017-12-08T20:47:58.228Z,3.30
2017-12-08T20:50:25.095Z,3.37
2017-12-08T20:52:51.846Z,4.25
2017-12-08T20:55:18.572Z,3.80
2017-12-08T20:57:44.507Z,3.45
2017-12-08T21:00:10.619Z,4.80
2017-12-08T21:02:37.565Z,6.37
2017-12-08T21:05:03.510Z,3.50
2017-12-08T21:07:29.467Z,4.27
2017-12-08T21:09:56.134Z,4.33
2017-12-08T21:12:22.080Z,4.70
2017-12-08T21:14:48.528Z,4.30
2017-12-08T21:17:14.487Z,4.87
2017-12-08T21:19:40.391Z,5.20
2017-12-08T21:22:06.323Z,4.73
2017-12-08T21:24:32.259Z,5.57
2017-12-08T21:26:58.222Z,5.60
2017-12-08T21:29:24.898Z,5.90
2017-12-08T21:31:50.823Z,6.65
2017-12-08T21:34:20.255Z,5.10
2017-12-08T21:36:46.196Z,4.93
2017-12-08T21:39:12.814Z,5.80
2017-12-08T21:41:38.786Z,5.50
2017-12-08T21:44:04.727Z,5.87
2017-12-08T21:46:30.694Z,5.20
2017-12-08T21:48:57.531Z,6.30
2017-12-08T21:51:24.203Z,5.40
2017-12-08T21:53:50.160Z,5.85
2017-12-08T21:56:16.140Z,5.10
2017-12-08T21:58:42.490Z,6.13
2017-12-08T22:01:08.475Z,5.22
2017-12-08T22:03:35.161Z,5.43
2017-12-08T22:06:01.717Z,5.70
2017-12-08T22:08:27.627Z,5.62
2017-12-08T22:10:53.562Z,5.77
2017-12-08T22:13:20.343Z,5.80
2017-12-08T22:15:46.284Z,7.07
2017-12-08T22:18:12.203Z,5.47
2017-12-08T22:20:38.097Z,5.43
2017-12-08T22:23:04.755Z,6.53
2017-12-08T22:25:30.670Z,5.68
2017-12-08T22:27:56.721Z,5.90
2017-12-08T22:30:22.666Z,5.60
2017-12-08T22:32:48.611Z,5.23
2017-12-08T22:35:15.267Z,4.97
2017-12-08T22:37:41.163Z,5.00
2017-12-08T22:40:07.860Z,5.37
2017-12-08T22:42:33.759Z,5.30
2017-12-08T22:44:59.720Z,5.23
2017-12-08T22:47:26.310Z,4.70
2017-12-08T22:49:52.295Z,7.70
2017-12-08T22:52:18.264Z,4.83
2017-12-08T22:54:44.280Z,5.67
2017-12-08T22:57:10.225Z,5.20
2017-12-08T22:59:36.171Z,5.60
2017-12-08T23:02:02.113Z,5.13
2017-12-08T23:04:28.760Z,5.13
2017-12-08T23:06:54.683Z,5.30
2017-12-08T23:09:20.656Z,5.90
2017-12-08T23:11:46.599Z,5.73
2017-12-08T23:14:12.506Z,6.50
2017-12-08T23:16:38.485Z,4.93
2017-12-08T23:19:05.217Z,5.03
2017-12-08T23:21:31.163Z,5.43
2017-12-08T23:23:57.092Z,5.27
2017-12-08T23:26:22.983Z,5.37
2017-12-08T23:28:48.902Z,6.03
2017-12-08T23:31:14.821Z,5.43
2017-12-08T23:33:40.849Z,5.67
2017-12-08T23:36:06.868Z,5.20
2017-12-08T23:38:32.791Z,5.20
2017-12-08T23:40:58.764Z,5.60
2017-12-08T23:43:24.739Z,6.10
2017-12-08T23:45:50.667Z,6.00
2017-12-08T23:48:16.603Z,5.47
2017-12-08T23:50:42.547Z,5.93
2017-12-08T23:53:08.505Z,5.70
2017-12-08T23:55:34.474Z,5.90
2017-12-08T23:58:01.231Z,5.73
